createdAt,value
2018-12-15T00:00:57.226Z,14.50
2018-12-15T00:03:25.316Z,16.13
2018-12-15T00:05:53.395Z,14.23
2018-12-15T00:08:21.456Z,15.90
2018-12-15T00:10:49.481Z,14.27
2018-12-15T00:13:17.559Z,15.20
2018-12-15T00:15:45.620Z,14.90
2018-12-15T00:18:13.695Z,14.73
2018-12-15T00:20:41.773Z,14.93
2018-12-15T00:23:09.815Z,14.63
2018-12-15T00:25:37.873Z,15.00
2018-12-15T00:28:05.996Z,16.10
2018-12-15T00:30:34.037Z,15.97
2018-12-15T00:33:02.091Z,15.67
2018-12-15T00:35:30.163Z,15.50
2018-12-15T00:37:58.229Z,15.30
2018-12-15T00:40:26.329Z,15.73
2018-12-15T00:42:54.383Z,15.47
2018-12-15T00:45:22.499Z,16.07
2018-12-15T00:47:50.568Z,16.40
2018-12-15T00:50:18.632Z,17.13
2018-12-15T00:52:46.701Z,15.83
2018-12-15T00:55:14.776Z,17.57
2018-12-15T00:57:42.834Z,17.10
2018-12-15T01:00:10.916Z,15.40
2018-12-15T01:02:38.972Z,16.77
2018-12-15T01:05:07.166Z,17.23
2018-12-15T01:07:35.306Z,15.73
2018-12-15T01:10:03.613Z,16.33
2018-12-15T01:12:31.708Z,16.27
2018-12-15T01:14:59.765Z,16.17
2018-12-15T01:17:27.855Z,16.70
2018-12-15T01:19:55.931Z,16.20
2018-12-15T01:22:23.998Z,17.23
2018-12-15T01:24:52.033Z,16.87
2018-12-15T01:27:20.103Z,15.80
2018-12-15T01:29:48.171Z,16.43
2018-12-15T01:32:16.237Z,18.00
2018-12-15T01:34:44.299Z,16.63
2018-12-15T01:37:12.340Z,16.97
2018-12-15T01:39:40.432Z,16.30
2018-12-15T01:42:08.501Z,17.73
2018-12-15T01:44:36.600Z,16.57
2018-12-15T01:47:04.672Z,17.40
2018-12-15T01:49:32.722Z,14.80
2018-12-15T01:52:00.793Z,17.27
2018-12-15T01:54:28.860Z,17.37
2018-12-15T01:56:56.924Z,17.77
2018-12-15T01:59:24.971Z,16.67
2018-12-15T02:01:53.036Z,17.30
2018-12-15T02:04:21.111Z,17.37
2018-12-15T02:06:49.163Z,18.03
2018-12-15T02:09:17.203Z,18.13
2018-12-15T02:11:45.309Z,18.90
2018-12-15T02:14:13.355Z,17.70
2018-12-15T02:16:41.404Z,18.70
2018-12-15T02:19:09.478Z,18.73
2018-12-15T02:21:37.623Z,18.00
2018-12-15T02:24:05.705Z,17.50
2018-12-15T02:26:33.763Z,16.60
2018-12-15T02:29:01.809Z,16.93
2018-12-15T02:31:29.881Z,17.37
2018-12-15T02:33:57.970Z,17.80
2018-12-15T02:36:26.009Z,18.23
2018-12-15T02:38:54.078Z,17.93
2018-12-15T02:41:22.121Z,18.70
2018-12-15T02:43:50.206Z,18.60
2018-12-15T02:46:18.296Z,19.57
2018-12-15T02:48:46.371Z,18.83
2018-12-15T02:51:14.414Z,18.57
2018-12-15T02:53:42.497Z,18.47
2018-12-15T02:56:10.586Z,18.93
2018-12-15T02:58:38.618Z,18.60
2018-12-15T03:01:06.676Z,18.07
2018-12-15T03:03:34.735Z,18.07
2018-12-15T03:06:02.766Z,18.17
2018-12-15T03:08:30.829Z,18.00
2018-12-15T03:10:58.864Z,18.47
2018-12-15T03:13:26.926Z,18.67
2018-12-15T03:15:54.984Z,18.77
2018-12-15T03:18:23.029Z,17.97
2018-12-15T03:20:59.358Z,18.73
2018-12-15T03:23:27.525Z,17.93
2018-12-15T03:25:55.582Z,17.63
2018-12-15T03:28:23.644Z,17.90
2018-12-15T03:30:51.688Z,17.87
2018-12-15T03:33:19.758Z,18.33
2018-12-15T03:35:47.827Z,18.53
2018-12-15T03:38:15.849Z,18.67
2018-12-15T03:40:43.968Z,17.70
2018-12-15T03:43:12.117Z,20.37
2018-12-15T03:45:40.171Z,18.23
2018-12-15T03:48:08.223Z,18.43
2018-12-15T03:50:36.365Z,18.00
2018-12-15T03:53:04.410Z,17.53
2018-12-15T03:55:32.452Z,16.40
2018-12-15T03:58:00.532Z,17.03
2018-12-15T04:00:28.604Z,16.70
2018-12-15T04:02:56.675Z,16.27
2018-12-15T04:05:24.733Z,16.83
2018-12-15T04:07:52.779Z,15.43
2018-12-15T04:10:20.946Z,15.70
2018-12-15T04:12:49.069Z,16.13
2018-12-15T04:15:17.240Z,17.40
2018-12-15T04:17:45.285Z,18.30
2018-12-15T04:20:13.356Z,17.97
2018-12-15T04:22:41.413Z,17.30
2018-12-15T04:25:09.437Z,15.77
2018-12-15T04:27:37.503Z,17.23
2018-12-15T04:30:06.131Z,18.10
2018-12-15T04:32:34.215Z,17.40
2018-12-15T04:35:02.248Z,15.90
2018-12-15T04:37:30.323Z,18.27
2018-12-15T04:39:58.371Z,15.83
2018-12-15T04:42:26.441Z,17.73
2018-12-15T04:44:54.479Z,16.27
2018-12-15T04:47:22.722Z,16.60
2018-12-15T04:49:50.787Z,17.03
2018-12-15T04:52:18.835Z,16.20
2018-12-15T04:54:46.912Z,18.37
2018-12-15T04:57:14.975Z,17.83
2018-12-15T04:59:43.068Z,16.43
2018-12-15T05:02:11.155Z,19.30
2018-12-15T05:04:46.052Z,17.30
2018-12-15T05:07:14.189Z,19.73
2018-12-15T05:09:42.249Z,19.03
2018-12-15T05:12:10.438Z,19.10
2018-12-15T05:14:38.489Z,19.43
2018-12-15T05:17:06.555Z,18.03
2018-12-15T05:19:34.610Z,19.60
2018-12-15T05:22:03.108Z,16.80
2018-12-15T05:24:31.184Z,16.43
2018-12-15T05:26:59.208Z,19.03
2018-12-15T05:29:27.249Z,17.30
2018-12-15T05:31:55.306Z,17.80
2018-12-15T05:34:23.380Z,16.63
2018-12-15T05:36:51.550Z,15.23
2018-12-15T05:39:19.591Z,17.20
2018-12-15T05:41:47.668Z,15.73
2018-12-15T05:44:15.727Z,15.37
2018-12-15T05:46:43.800Z,14.67
2018-12-15T05:49:11.925Z,14.17
2018-12-15T05:51:39.972Z,14.50
2018-12-15T05:54:08.055Z,13.90
2018-12-15T05:56:36.110Z,15.10
2018-12-15T05:59:04.307Z,14.30
2018-12-15T06:01:32.367Z,14.97
2018-12-15T06:04:00.434Z,14.97
2018-12-15T06:06:28.562Z,14.07
2018-12-15T06:08:56.618Z,14.10
2018-12-15T06:11:24.669Z,14.13
2018-12-15T06:13:52.746Z,15.07
2018-12-15T06:16:20.784Z,13.87
2018-12-15T06:18:48.874Z,11.73
2018-12-15T06:21:16.909Z,11.50
2018-12-15T06:23:44.972Z,11.23
2018-12-15T06:26:13.163Z,11.50
2018-12-15T06:28:41.195Z,9.83
2018-12-15T06:31:09.276Z,11.07
2018-12-15T06:33:37.419Z,11.33
2018-12-15T06:36:05.598Z,11.57
2018-12-15T06:38:33.669Z,11.70
2018-12-15T06:41:01.724Z,12.10
2018-12-15T06:43:29.974Z,10.63
2018-12-15T06:45:58.308Z,11.37
2018-12-15T06:48:26.374Z,12.63
2018-12-15T06:50:54.427Z,12.03
2018-12-15T06:53:22.503Z,12.87
2018-12-15T06:55:50.551Z,12.50
2018-12-15T06:58:18.627Z,13.77
2018-12-15T07:00:46.697Z,12.83
2018-12-15T07:03:14.857Z,12.90
2018-12-15T07:05:42.943Z,13.53
2018-12-15T07:08:11.019Z,13.20
2018-12-15T07:10:39.189Z,13.57
2018-12-15T07:13:07.241Z,13.63
2018-12-15T07:15:35.298Z,14.53
2018-12-15T07:18:03.341Z,15.47
2018-12-15T07:20:31.395Z,14.23
2018-12-15T07:22:59.465Z,13.93
2018-12-15T07:25:27.530Z,15.23
2018-12-15T07:27:55.596Z,14.60
2018-12-15T07:30:23.873Z,14.30
2018-12-15T07:32:51.941Z,14.50
2018-12-15T07:35:19.982Z,14.73
2018-12-15T07:37:48.039Z,13.13
2018-12-15T07:40:16.088Z,12.47
2018-12-15T07:42:44.156Z,13.57
2018-12-15T07:45:12.195Z,13.07
2018-12-15T07:47:40.255Z,13.80
2018-12-15T07:50:08.332Z,13.27
2018-12-15T07:52:36.372Z,12.63
2018-12-15T07:55:04.590Z,12.67
2018-12-15T07:57:32.764Z,12.83
2018-12-15T08:00:00.870Z,12.10
2018-12-15T08:02:28.895Z,12.17
2018-12-15T08:04:56.938Z,13.07
2018-12-15T08:07:25.140Z,14.03
2018-12-15T08:09:53.175Z,13.90
2018-12-15T08:12:26.740Z,12.10
2018-12-15T08:14:54.774Z,13.67
2018-12-15T08:17:22.854Z,12.03
2018-12-15T08:19:50.946Z,14.03
2018-12-15T08:22:19.007Z,14.63
2018-12-15T08:24:47.093Z,13.77
2018-12-15T08:27:15.138Z,14.50
2018-12-15T08:29:43.333Z,13.37
2018-12-15T08:32:11.383Z,13.43
2018-12-15T08:34:39.459Z,13.77
2018-12-15T08:37:07.513Z,15.27
2018-12-15T08:39:35.617Z,13.87
2018-12-15T08:42:03.963Z,15.27
2018-12-15T08:44:32.398Z,13.60
2018-12-15T08:47:00.593Z,14.63
2018-12-15T08:49:28.627Z,12.40
2018-12-15T08:51:56.695Z,14.03
2018-12-15T08:54:24.765Z,14.27
2018-12-15T08:56:52.826Z,13.27
2018-12-15T08:59:20.888Z,16.83
2018-12-15T09:01:48.983Z,15.97
2018-12-15T09:04:17.015Z,15.23
2018-12-15T09:06:45.069Z,16.40
2018-12-15T09:09:13.126Z,16.10
2018-12-15T09:11:41.241Z,15.47
2018-12-15T09:14:09.288Z,16.67
2018-12-15T09:16:37.363Z,16.30
2018-12-15T09:19:11.074Z,17.77
2018-12-15T09:21:35.508Z,15.63
2018-12-15T09:24:03.572Z,17.97
2018-12-15T09:26:31.657Z,15.87
2018-12-15T09:28:59.722Z,18.17
2018-12-15T09:31:27.804Z,18.17
2018-12-15T09:33:55.825Z,16.53
2018-12-15T09:36:23.903Z,17.10
2018-12-15T09:38:52.409Z,15.40
2018-12-15T09:41:20.515Z,17.27
2018-12-15T09:43:48.543Z,17.63
2018-12-15T09:46:16.598Z,17.40
2018-12-15T09:48:44.631Z,16.33
2018-12-15T09:51:12.728Z,16.73
2018-12-15T09:53:40.802Z,17.03
2018-12-15T09:56:08.918Z,16.97
2018-12-15T09:58:37.005Z,16.73
2018-12-15T10:01:05.062Z,17.83
2018-12-15T10:03:33.133Z,17.53
2018-12-15T10:06:01.242Z,16.73
2018-12-15T10:08:29.296Z,16.57
2018-12-15T10:10:57.376Z,16.60
2018-12-15T10:13:25.401Z,17.23
2018-12-15T10:15:53.511Z,16.57
2018-12-15T10:18:21.550Z,16.80
2018-12-15T10:20:49.635Z,16.57
2018-12-15T10:23:17.691Z,16.00
2018-12-15T10:25:45.740Z,15.60
2018-12-15T10:28:13.806Z,15.20
2018-12-15T10:30:47.228Z,14.20
2018-12-15T10:33:15.315Z,15.63
2018-12-15T10:35:43.362Z,15.90
2018-12-15T10:38:11.411Z,17.07
2018-12-15T10:40:39.464Z,14.83
2018-12-15T10:43:07.558Z,14.27
2018-12-15T10:45:35.609Z,15.00
2018-12-15T10:48:03.805Z,14.80
2018-12-15T10:50:31.977Z,15.10
2018-12-15T10:53:00.071Z,14.50
2018-12-15T10:55:28.362Z,14.80
2018-12-15T10:57:56.556Z,14.67
2018-12-15T11:00:29.199Z,17.93
2018-12-15T11:02:57.283Z,14.73
2018-12-15T11:05:25.332Z,14.70
2018-12-15T11:07:53.384Z,14.37
2018-12-15T11:10:21.432Z,15.20
2018-12-15T11:12:49.512Z,15.17
2018-12-15T11:15:17.568Z,13.47
2018-12-15T11:17:45.629Z,14.73
2018-12-15T11:20:13.668Z,13.10
2018-12-15T11:22:41.771Z,13.03
2018-12-15T11:25:09.820Z,13.63
2018-12-15T11:27:37.904Z,12.33
2018-12-15T11:30:05.995Z,14.00
2018-12-15T11:32:34.131Z,12.97
2018-12-15T11:35:02.192Z,13.03
2018-12-15T11:37:30.251Z,12.60
2018-12-15T11:39:58.331Z,12.87
2018-12-15T11:42:26.396Z,12.47
2018-12-15T11:44:54.516Z,12.33
2018-12-15T11:47:22.558Z,13.13
2018-12-15T11:49:50.647Z,13.00
2018-12-15T11:52:18.736Z,14.00
2018-12-15T11:54:46.776Z,14.47
2018-12-15T11:57:14.876Z,12.40
2018-12-15T11:59:42.954Z,12.73
2018-12-15T12:02:11.000Z,11.37
2018-12-15T12:04:39.074Z,11.70
2018-12-15T12:07:07.915Z,11.80
2018-12-15T12:09:36.130Z,10.97
2018-12-15T12:12:04.328Z,12.40
2018-12-15T12:14:32.368Z,12.00
2018-12-15T12:17:00.432Z,15.40
2018-12-15T12:19:28.479Z,13.87
2018-12-15T12:21:56.618Z,13.57
2018-12-15T12:24:24.808Z,12.80
2018-12-15T12:26:52.869Z,11.67
2018-12-15T12:29:20.986Z,11.50
2018-12-15T12:31:49.078Z,11.20
2018-12-15T12:34:17.158Z,10.53
2018-12-15T12:36:45.186Z,11.27
2018-12-15T12:39:13.271Z,11.53
2018-12-15T12:41:41.337Z,11.23
2018-12-15T12:44:09.441Z,12.77
2018-12-15T12:46:37.529Z,12.57
2018-12-15T12:49:05.630Z,11.33
2018-12-15T12:51:33.663Z,11.93
2018-12-15T12:54:01.751Z,11.97
2018-12-15T12:56:29.793Z,11.73
2018-12-15T12:58:57.857Z,12.33
2018-12-15T13:01:25.932Z,12.40
2018-12-15T13:03:54.015Z,14.37
2018-12-15T13:06:22.077Z,13.67
2018-12-15T13:08:50.149Z,16.37
2018-12-15T13:11:18.187Z,14.53
2018-12-15T13:13:46.253Z,11.80
2018-12-15T13:16:14.331Z,13.23
2018-12-15T13:18:42.423Z,13.80
2018-12-15T13:21:10.486Z,13.53
2018-12-15T13:23:38.532Z,14.10
2018-12-15T13:26:06.707Z,13.53
2018-12-15T13:28:34.792Z,13.57
2018-12-15T13:31:02.837Z,13.63
2018-12-15T13:33:32.623Z,13.50
2018-12-15T13:36:00.818Z,13.23
2018-12-15T13:38:28.871Z,13.70
2018-12-15T13:40:57.093Z,14.43
2018-12-15T13:43:25.131Z,15.00
2018-12-15T13:45:53.180Z,13.50
2018-12-15T13:48:21.326Z,15.00
2018-12-15T13:50:49.433Z,14.43
2018-12-15T13:53:17.464Z,15.80
2018-12-15T13:55:45.532Z,15.60
2018-12-15T13:58:13.770Z,13.90
2018-12-15T14:00:41.818Z,14.30
2018-12-15T14:03:09.884Z,15.50
2018-12-15T14:05:37.966Z,14.40
2018-12-15T14:08:06.038Z,14.50
2018-12-15T14:10:34.077Z,15.73
2018-12-15T14:13:02.167Z,15.80
2018-12-15T14:15:30.243Z,15.00
2018-12-15T14:17:58.309Z,14.23
2018-12-15T14:20:26.473Z,14.27
2018-12-15T14:22:54.674Z,14.73
2018-12-15T14:25:22.719Z,15.37
2018-12-15T14:27:50.790Z,17.30
2018-12-15T14:30:18.865Z,17.13
2018-12-15T14:32:46.981Z,16.40
2018-12-15T14:35:15.026Z,17.13
2018-12-15T14:37:43.102Z,17.83
2018-12-15T14:40:11.313Z,16.50
2018-12-15T14:42:39.416Z,16.60
2018-12-15T14:45:07.608Z,17.10
2018-12-15T14:47:35.714Z,16.97
2018-12-15T14:50:04.135Z,16.30
2018-12-15T14:52:32.249Z,16.50
2018-12-15T14:55:00.353Z,17.20
2018-12-15T14:57:28.434Z,15.93
2018-12-15T14:59:56.487Z,15.23
2018-12-15T15:02:24.550Z,16.63
2018-12-15T15:04:52.632Z,15.27
2018-12-15T15:07:20.716Z,17.85
2018-12-15T15:09:48.794Z,17.40
2018-12-15T15:12:16.854Z,17.83
2018-12-15T15:14:44.938Z,17.90
2018-12-15T15:17:13.002Z,18.27
2018-12-15T15:19:41.072Z,17.93
2018-12-15T15:22:09.128Z,21.20
2018-12-15T15:24:37.211Z,19.80
2018-12-15T15:27:05.381Z,18.23
2018-12-15T15:29:33.560Z,18.97
2018-12-15T15:32:01.603Z,19.17
2018-12-15T15:34:29.659Z,17.07
2018-12-15T15:36:57.765Z,17.50
2018-12-15T16:00:15.582Z,16.02
2018-12-15T16:02:43.699Z,16.07
2018-12-15T16:05:11.803Z,15.80
2018-12-15T16:09:21.973Z,14.67
2018-12-15T16:11:49.350Z,13.10
2018-12-15T16:14:16.676Z,13.20
2018-12-15T16:16:44.048Z,13.00
2018-12-15T16:19:11.403Z,14.53
2018-12-15T16:21:38.845Z,14.30
2018-12-15T16:24:06.215Z,14.40
2018-12-15T16:26:33.580Z,15.60
2018-12-15T16:29:00.940Z,15.33
2018-12-15T16:31:28.281Z,16.70
2018-12-15T16:33:55.667Z,16.83
2018-12-15T16:36:22.997Z,18.97
2018-12-15T16:38:50.364Z,18.77
2018-12-15T16:41:17.738Z,18.00
2018-12-15T16:43:45.097Z,16.07
2018-12-15T16:46:12.484Z,15.77
2018-12-15T16:48:39.818Z,17.90
2018-12-15T16:51:07.181Z,16.97
2018-12-15T16:53:34.518Z,16.20
2018-12-15T16:56:01.913Z,17.40
2018-12-15T16:58:29.259Z,18.60
2018-12-15T17:00:56.761Z,15.97
2018-12-15T17:03:30.381Z,16.90
2018-12-15T17:05:53.513Z,17.40
2018-12-15T17:08:20.859Z,15.53
2018-12-15T17:10:48.217Z,15.83
2018-12-15T17:13:15.602Z,15.63
2018-12-15T17:15:42.939Z,15.07
2018-12-15T17:19:09.594Z,14.47
2018-12-15T17:22:26.560Z,14.50
2018-12-15T17:24:53.990Z,14.20
2018-12-15T17:27:25.914Z,13.77
2018-12-15T17:29:53.256Z,14.07
2018-12-15T17:32:20.804Z,12.80
2018-12-15T18:38:05.726Z,4.78
2018-12-15T18:40:33.107Z,5.40
2018-12-15T18:43:49.676Z,6.00
2018-12-15T18:46:17.119Z,6.08
2018-12-15T18:49:41.315Z,10.95
2018-12-15T18:52:08.799Z,10.68
2018-12-15T18:54:36.200Z,11.18
2018-12-15T18:57:03.969Z,10.57
2018-12-15T18:59:31.515Z,10.67
2018-12-15T19:01:58.952Z,10.67
2018-12-15T19:04:26.351Z,10.17
2018-12-15T19:06:53.749Z,11.73
2018-12-15T19:09:21.191Z,11.70
2018-12-15T19:11:48.580Z,11.70
2018-12-15T19:14:16.005Z,12.33
2018-12-15T19:16:43.521Z,11.47
2018-12-15T19:19:10.947Z,11.63
2018-12-15T19:21:38.706Z,14.57
2018-12-15T19:24:06.138Z,15.17
2018-12-15T19:26:43.287Z,14.73
2018-12-15T19:29:23.689Z,14.60
2018-12-15T19:32:01.079Z,16.93
2018-12-15T19:34:28.897Z,16.07
2018-12-15T19:36:58.497Z,16.03
2018-12-15T19:39:49.050Z,15.13
2018-12-15T19:42:19.887Z,14.17
2018-12-15T19:44:53.584Z,14.10
2018-12-15T19:47:21.188Z,14.63
2018-12-15T19:49:48.642Z,15.47
2018-12-15T19:52:16.148Z,14.23
2018-12-15T19:54:47.422Z,15.23
2018-12-15T19:57:15.040Z,15.53
2018-12-15T19:59:42.479Z,16.27
2018-12-15T20:02:15.374Z,15.27
2018-12-15T20:04:43.290Z,17.87
2018-12-15T20:07:10.762Z,19.17
2018-12-15T20:09:38.193Z,21.03
2018-12-15T20:12:05.762Z,16.87
2018-12-15T20:14:33.225Z,20.57
2018-12-15T20:17:00.639Z,21.67
2018-12-15T20:19:28.068Z,17.83
2018-12-15T20:21:55.505Z,17.00
2018-12-15T20:24:22.992Z,16.67
2018-12-15T20:26:50.442Z,18.50
2018-12-15T20:29:17.875Z,19.77
2018-12-15T20:31:45.247Z,17.77
2018-12-15T20:34:12.669Z,19.53
2018-12-15T20:36:40.081Z,21.73
2018-12-15T20:39:07.623Z,23.50
2018-12-15T20:41:35.060Z,26.90
2018-12-15T20:44:02.610Z,20.70
2018-12-15T20:46:30.054Z,21.60
2018-12-15T20:48:57.419Z,21.00
2018-12-15T20:51:24.834Z,20.73
2018-12-15T20:53:52.325Z,19.37
2018-12-15T20:56:19.742Z,18.60
2018-12-15T20:58:47.167Z,19.87
2018-12-15T21:01:14.587Z,20.63
2018-12-15T21:03:41.992Z,18.97
2018-12-15T21:06:09.436Z,19.03
2018-12-15T21:08:36.877Z,20.63
2018-12-15T21:11:04.921Z,21.20
2018-12-15T21:13:32.398Z,20.23
2018-12-15T21:15:59.933Z,21.93
2018-12-15T21:18:27.362Z,20.97
2018-12-15T21:20:54.773Z,20.93
2018-12-15T21:23:22.271Z,20.53
2018-12-15T21:25:49.684Z,20.47
2018-12-15T21:28:17.073Z,20.77
2018-12-15T21:30:44.534Z,17.90
2018-12-15T21:33:11.961Z,20.53
2018-12-15T21:35:39.509Z,23.17
2018-12-15T21:38:06.938Z,23.17
2018-12-15T21:40:34.357Z,23.30
2018-12-15T21:43:01.802Z,21.33
2018-12-15T21:45:29.199Z,20.50
2018-12-15T21:47:57.801Z,19.37
2018-12-15T21:50:25.497Z,20.67
2018-12-15T21:52:52.939Z,20.57
2018-12-15T21:55:20.340Z,20.57
2018-12-15T21:57:47.742Z,18.47
2018-12-15T22:00:15.334Z,20.00
2018-12-15T22:02:42.745Z,19.77
2018-12-15T22:05:10.154Z,24.80
2018-12-15T22:07:37.594Z,26.20
2018-12-15T22:10:06.583Z,24.67
2018-12-15T22:12:33.993Z,20.47
2018-12-15T22:15:01.438Z,18.43
2018-12-15T22:17:28.846Z,19.77
2018-12-15T22:19:56.278Z,17.57
2018-12-15T22:22:23.722Z,19.40
2018-12-15T22:24:51.402Z,21.10
2018-12-15T22:27:18.869Z,20.07
2018-12-15T22:29:46.343Z,22.13
2018-12-15T22:32:13.738Z,19.17
2018-12-15T22:34:41.153Z,19.33
2018-12-15T22:37:08.588Z,19.30
2018-12-15T22:39:36.037Z,18.97
2018-12-15T22:42:03.548Z,19.83
2018-12-15T22:44:30.970Z,21.07
2018-12-15T22:46:58.374Z,20.00
2018-12-15T22:49:25.800Z,19.80
2018-12-15T22:51:53.219Z,18.30
2018-12-15T22:54:20.631Z,19.17
2018-12-15T22:56:48.040Z,18.30
2018-12-15T22:59:15.576Z,18.70
2018-12-15T23:01:44.863Z,21.23
2018-12-15T23:04:12.531Z,18.37
2018-12-15T23:06:40.078Z,21.07
2018-12-15T23:09:07.813Z,26.27
2018-12-15T23:11:35.345Z,20.80
2018-12-15T23:14:02.911Z,19.67
2018-12-15T23:16:30.359Z,20.27
2018-12-15T23:18:57.785Z,17.67
2018-12-15T23:21:25.224Z,19.27
2018-12-15T23:23:52.635Z,18.23
2018-12-15T23:26:20.054Z,19.37
2018-12-15T23:28:47.471Z,18.23
2018-12-15T23:31:14.894Z,20.07
2018-12-15T23:33:42.324Z,17.93
2018-12-15T23:36:09.769Z,18.50
2018-12-15T23:38:37.151Z,21.10
2018-12-15T23:41:04.587Z,23.77
2018-12-15T23:43:32.033Z,20.27
2018-12-15T23:45:59.422Z,21.73
2018-12-15T23:48:26.829Z,21.50
2018-12-15T23:50:54.225Z,19.67
2018-12-15T23:53:21.702Z,19.13
2018-12-15T23:55:49.121Z,20.70
2018-12-15T23:58:16.500Z,20.87
